createdAt,value
2019-03-22T00:00:01.138Z,42.50
2019-03-22T00:02:29.407Z,42.60
2019-03-22T00:04:58.557Z,42.50
2019-03-22T00:07:26.833Z,42.50
2019-03-22T00:09:55.089Z,42.50
2019-03-22T00:12:23.362Z,42.50
2019-03-22T00:14:51.641Z,42.50
2019-03-22T00:17:20.172Z,42.40
2019-03-22T00:19:48.703Z,42.50
2019-03-22T00:22:17.241Z,42.50
2019-03-22T00:24:45.503Z,42.50
2019-03-22T00:27:16.606Z,42.50
2019-03-22T00:29:43.808Z,42.50
2019-03-22T00:32:12.114Z,42.60
2019-03-22T00:34:40.360Z,42.50
2019-03-22T00:37:08.689Z,42.50
2019-03-22T00:39:37.221Z,42.60
2019-03-22T00:42:05.738Z,42.60
2019-03-22T00:44:33.987Z,42.60
2019-03-22T00:47:02.535Z,42.60
2019-03-22T00:49:30.846Z,42.60
2019-03-22T00:51:59.141Z,42.60
2019-03-22T00:54:27.562Z,42.60
2019-03-22T00:56:55.902Z,42.60
2019-03-22T00:59:24.438Z,42.60
2019-03-22T01:01:52.684Z,42.60
2019-03-22T01:04:20.968Z,42.60
2019-03-22T01:06:49.251Z,42.70
2019-03-22T01:09:17.520Z,42.70
2019-03-22T01:11:46.041Z,42.60
2019-03-22T01:14:14.539Z,42.60
2019-03-22T01:16:42.790Z,42.60
2019-03-22T01:19:11.068Z,42.70
2019-03-22T01:21:39.321Z,42.80
2019-03-22T01:24:07.640Z,42.80
2019-03-22T01:26:35.904Z,42.90
2019-03-22T01:29:04.461Z,42.90
2019-03-22T01:31:32.705Z,42.90
2019-03-22T01:34:01.023Z,43.00
2019-03-22T01:36:29.303Z,43.00
2019-03-22T01:38:57.575Z,43.00
2019-03-22T01:41:25.857Z,43.00
2019-03-22T01:43:54.369Z,43.00
2019-03-22T01:46:22.911Z,43.00
2019-03-22T01:48:51.226Z,43.00
2019-03-22T01:51:19.504Z,43.00
2019-03-22T01:53:47.758Z,43.00
2019-03-22T01:56:16.034Z,43.00
2019-03-22T01:58:44.298Z,43.10
2019-03-22T02:01:12.548Z,43.10
2019-03-22T02:03:40.817Z,43.10
2019-03-22T02:06:09.061Z,43.00
2019-03-22T02:08:37.328Z,43.10
2019-03-22T02:11:05.569Z,43.10
2019-03-22T02:13:33.841Z,43.10
2019-03-22T02:16:02.108Z,43.10
2019-03-22T02:18:30.353Z,43.10
2019-03-22T02:20:58.625Z,43.00
2019-03-22T02:23:26.980Z,43.10
2019-03-22T02:25:55.257Z,43.10
2019-03-22T02:28:23.523Z,43.10
2019-03-22T02:30:51.787Z,43.10
2019-03-22T02:33:20.281Z,43.10
2019-03-22T02:35:48.552Z,43.10
2019-03-22T02:38:16.870Z,43.10
2019-03-22T02:40:45.136Z,43.10
2019-03-22T02:43:13.406Z,43.10
2019-03-22T02:45:41.674Z,43.10
2019-03-22T02:48:10.174Z,43.10
2019-03-22T02:50:38.423Z,43.10
2019-03-22T02:53:06.714Z,43.10
2019-03-22T02:55:35.195Z,43.10
2019-03-22T02:58:19.337Z,43.10
2019-03-22T03:00:33.674Z,43.10
2019-03-22T03:03:01.945Z,43.10
2019-03-22T03:05:30.517Z,43.10
2019-03-22T03:07:58.780Z,43.10
2019-03-22T03:10:27.024Z,43.20
2019-03-22T03:12:55.297Z,43.20
2019-03-22T03:15:23.604Z,43.20
2019-03-22T03:17:51.851Z,43.20
2019-03-22T03:20:20.122Z,43.20
2019-03-22T03:22:48.397Z,43.30
2019-03-22T03:25:16.707Z,43.20
2019-03-22T03:27:45.211Z,43.20
2019-03-22T03:30:16.732Z,43.30
2019-03-22T03:32:45.001Z,43.40
2019-03-22T03:35:13.435Z,43.30
2019-03-22T03:37:41.667Z,43.40
2019-03-22T03:40:11.137Z,43.40
2019-03-22T03:42:39.407Z,43.40
2019-03-22T03:45:10.470Z,43.40
2019-03-22T03:47:38.716Z,43.40
2019-03-22T03:50:07.717Z,43.50
2019-03-22T03:52:39.398Z,43.40
2019-03-22T03:55:06.493Z,43.40
2019-03-22T03:57:34.830Z,43.40
2019-03-22T04:00:05.317Z,43.50
2019-03-22T04:02:33.805Z,43.50
2019-03-22T04:05:02.070Z,43.50
2019-03-22T04:07:30.558Z,43.50
2019-03-22T04:09:58.811Z,43.50
2019-03-22T04:12:27.061Z,43.50
2019-03-22T04:14:55.594Z,43.50
2019-03-22T04:17:24.082Z,43.50
2019-03-22T04:19:52.422Z,43.50
2019-03-22T04:22:20.899Z,43.60
2019-03-22T04:24:49.173Z,43.60
2019-03-22T04:27:17.663Z,43.60
2019-03-22T04:29:45.991Z,43.60
2019-03-22T04:32:14.353Z,43.70
2019-03-22T04:34:42.633Z,43.60
2019-03-22T04:37:11.109Z,43.60
2019-03-22T04:39:39.443Z,43.60
2019-03-22T04:42:07.722Z,43.60
2019-03-22T04:44:35.984Z,43.60
2019-03-22T04:47:04.225Z,43.70
2019-03-22T04:49:32.934Z,43.60
2019-03-22T04:52:01.201Z,43.60
2019-03-22T04:54:29.690Z,43.60
2019-03-22T04:56:57.954Z,43.70
2019-03-22T04:59:26.207Z,43.70
2019-03-22T05:01:54.554Z,43.70
2019-03-22T05:04:22.973Z,43.70
2019-03-22T05:06:51.241Z,43.70
2019-03-22T05:09:19.491Z,43.80
2019-03-22T05:11:47.990Z,43.80
2019-03-22T05:14:16.511Z,43.90
2019-03-22T05:16:44.993Z,43.90
2019-03-22T05:19:13.255Z,43.80
2019-03-22T05:21:41.498Z,43.80
2019-03-22T05:24:09.764Z,43.90
2019-03-22T05:26:38.081Z,43.90
2019-03-22T05:29:06.416Z,43.90
2019-03-22T05:31:40.885Z,43.80
2019-03-22T05:34:09.167Z,43.90
2019-03-22T05:36:37.430Z,43.90
2019-03-22T05:39:07.916Z,43.90
2019-03-22T05:41:36.179Z,43.90
2019-03-22T05:44:04.441Z,43.90
2019-03-22T05:46:32.692Z,43.90
2019-03-22T05:49:00.989Z,43.90
2019-03-22T05:51:29.241Z,43.90
2019-03-22T05:53:57.507Z,43.90
2019-03-22T05:56:25.831Z,43.90
2019-03-22T05:58:54.339Z,43.90
2019-03-22T06:01:22.602Z,43.90
2019-03-22T06:03:50.845Z,43.90
2019-03-22T06:06:19.371Z,43.90
2019-03-22T06:08:47.633Z,43.90
2019-03-22T06:11:15.913Z,44.00
2019-03-22T06:13:44.537Z,43.90
2019-03-22T06:16:13.150Z,43.90
2019-03-22T06:18:41.481Z,44.00
2019-03-22T06:21:09.777Z,43.90
2019-03-22T06:23:38.026Z,44.00
2019-03-22T06:26:06.298Z,43.90
2019-03-22T06:28:34.626Z,43.90
2019-03-22T06:31:02.899Z,44.00
2019-03-22T06:33:31.158Z,43.90
2019-03-22T06:35:59.468Z,43.90
2019-03-22T06:38:28.061Z,44.00
2019-03-22T06:40:56.357Z,43.90
2019-03-22T06:43:24.717Z,43.90
2019-03-22T06:45:53.009Z,43.90
2019-03-22T06:48:21.279Z,43.90
2019-03-22T06:50:49.519Z,43.90
2019-03-22T06:53:17.794Z,43.90
2019-03-22T06:55:46.036Z,43.90
2019-03-22T06:58:14.289Z,43.90
2019-03-22T07:00:42.822Z,43.90
2019-03-22T07:03:11.145Z,43.90
2019-03-22T07:05:39.397Z,43.70
2019-03-22T07:08:07.687Z,43.80
2019-03-22T07:10:36.190Z,43.80
2019-03-22T07:13:04.444Z,43.70
2019-03-22T07:15:32.763Z,43.80
2019-03-22T07:18:01.024Z,43.70
2019-03-22T07:20:29.521Z,43.70
2019-03-22T07:22:57.795Z,43.70
2019-03-22T07:25:26.021Z,43.70
2019-03-22T07:27:54.328Z,43.70
2019-03-22T07:30:22.633Z,43.70
2019-03-22T07:32:50.882Z,43.70
2019-03-22T07:35:19.153Z,43.70
2019-03-22T07:37:47.397Z,43.70
2019-03-22T07:40:15.645Z,43.80
2019-03-22T07:42:43.913Z,43.70
2019-03-22T07:45:12.217Z,43.80
2019-03-22T07:47:40.704Z,43.80
2019-03-22T07:50:11.150Z,43.80
2019-03-22T07:52:39.436Z,43.90
2019-03-22T07:55:07.759Z,43.80
2019-03-22T07:57:36.237Z,43.90
2019-03-22T08:00:09.685Z,43.90
2019-03-22T08:02:37.952Z,43.90
2019-03-22T08:05:06.964Z,43.80
2019-03-22T08:07:35.247Z,43.90
2019-03-22T08:10:08.029Z,43.90
2019-03-22T08:12:36.340Z,43.90
2019-03-22T08:15:08.133Z,43.90
2019-03-22T08:17:35.406Z,43.90
2019-03-22T08:20:05.289Z,43.90
2019-03-22T08:22:33.582Z,43.90
2019-03-22T08:25:02.007Z,43.90
2019-03-22T08:27:30.289Z,43.90
2019-03-22T08:29:58.534Z,43.80
2019-03-22T08:32:26.788Z,43.80
2019-03-22T08:34:55.314Z,43.90
2019-03-22T08:37:23.603Z,43.80
2019-03-22T08:39:52.200Z,43.90
2019-03-22T08:42:20.485Z,44.00
2019-03-22T08:44:48.996Z,43.90
2019-03-22T08:47:17.593Z,43.90
2019-03-22T08:49:46.098Z,43.80
2019-03-22T08:52:14.866Z,43.80
2019-03-22T08:54:43.209Z,43.70
2019-03-22T08:57:11.788Z,43.90
2019-03-22T08:59:40.273Z,43.90
2019-03-22T09:02:08.678Z,43.90
2019-03-22T09:04:37.123Z,43.90
2019-03-22T09:07:05.563Z,43.90
2019-03-22T09:09:41.353Z,43.80
2019-03-22T09:12:04.733Z,43.90
2019-03-22T09:14:33.154Z,43.80
2019-03-22T09:17:01.746Z,43.80
2019-03-22T09:19:30.427Z,44.30
2019-03-22T09:21:59.764Z,44.30
2019-03-22T09:24:38.562Z,44.60
2019-03-22T09:26:58.741Z,44.70
2019-03-22T09:29:27.077Z,44.80
2019-03-22T09:31:55.780Z,44.70
2019-03-22T09:34:33.597Z,45.40
2019-03-22T09:36:54.415Z,44.70
2019-03-22T09:39:22.937Z,44.50
2019-03-22T09:41:51.628Z,44.50
2019-03-22T09:44:20.249Z,44.40
2019-03-22T09:46:48.679Z,44.40
2019-03-22T09:49:17.009Z,44.40
2019-03-22T09:51:45.851Z,44.40
2019-03-22T09:54:14.548Z,44.70
2019-03-22T09:56:47.242Z,44.90
2019-03-22T09:59:13.333Z,44.60
2019-03-22T10:01:41.745Z,44.50
2019-03-22T10:04:10.150Z,44.50
2019-03-22T10:06:39.545Z,44.60
2019-03-22T10:09:08.374Z,44.50
2019-03-22T10:11:36.709Z,44.80
2019-03-22T10:14:05.122Z,44.60
2019-03-22T10:16:33.457Z,44.60
2019-03-22T10:19:02.009Z,44.60
2019-03-22T10:21:30.698Z,44.60
2019-03-22T10:23:59.283Z,44.60
2019-03-22T10:26:27.743Z,44.60
2019-03-22T10:28:57.298Z,44.50
2019-03-22T10:31:36.523Z,44.50
2019-03-22T10:33:56.371Z,44.50
2019-03-22T10:36:24.744Z,44.50
2019-03-22T10:38:53.333Z,44.40
2019-03-22T10:41:21.913Z,44.40
2019-03-22T10:43:50.468Z,44.40
2019-03-22T10:46:19.018Z,44.30
2019-03-22T10:48:47.723Z,44.30
2019-03-22T10:51:16.106Z,44.40
2019-03-22T10:53:44.987Z,44.30
2019-03-22T10:56:13.902Z,44.40
2019-03-22T10:58:43.010Z,44.30
2019-03-22T11:01:11.344Z,44.40
2019-03-22T11:03:39.983Z,44.40
2019-03-22T11:06:08.690Z,44.30
2019-03-22T11:08:37.055Z,44.40
2019-03-22T11:11:05.601Z,44.20
2019-03-22T11:13:33.983Z,44.00
2019-03-22T11:16:02.282Z,44.00
2019-03-22T11:18:37.391Z,43.90
2019-03-22T11:21:05.103Z,43.80
2019-03-22T11:23:31.197Z,43.70
2019-03-22T11:26:04.118Z,43.60
2019-03-22T11:28:30.142Z,43.50
2019-03-22T11:31:04.616Z,43.40
2019-03-22T11:33:29.331Z,43.40
2019-03-22T11:35:57.798Z,43.30
2019-03-22T11:38:26.555Z,43.20
2019-03-22T11:40:55.550Z,43.10
2019-03-22T11:43:25.626Z,43.00
2019-03-22T11:45:54.208Z,43.00
2019-03-22T11:48:22.882Z,42.80
2019-03-22T11:50:51.308Z,42.80
2019-03-22T11:53:19.585Z,42.70
2019-03-22T11:55:50.131Z,42.50
2019-03-22T11:58:19.156Z,42.50
2019-03-22T12:00:47.617Z,42.40
2019-03-22T12:03:16.105Z,42.30
2019-03-22T12:05:44.717Z,42.20
2019-03-22T12:08:13.226Z,42.10
2019-03-22T12:10:41.923Z,42.00
2019-03-22T12:13:10.578Z,41.80
2019-03-22T12:15:39.700Z,41.70
2019-03-22T12:18:08.041Z,41.60
2019-03-22T12:20:36.871Z,41.60
2019-03-22T12:23:06.307Z,41.40
2019-03-22T12:25:35.673Z,41.40
2019-03-22T12:28:04.461Z,41.20
2019-03-22T12:30:33.676Z,41.10
2019-03-22T12:33:02.165Z,41.10
2019-03-22T12:35:31.368Z,41.00
2019-03-22T12:38:00.366Z,41.00
2019-03-22T12:40:28.865Z,40.90
2019-03-22T12:42:57.860Z,40.80
2019-03-22T12:45:31.619Z,41.30
2019-03-22T12:47:59.998Z,41.20
2019-03-22T12:50:28.290Z,41.00
2019-03-22T12:52:56.895Z,41.00
2019-03-22T12:55:25.376Z,41.10
2019-03-22T12:57:54.643Z,41.10
2019-03-22T13:00:24.453Z,41.20
2019-03-22T13:02:53.778Z,41.40
2019-03-22T13:05:22.476Z,41.40
2019-03-22T13:07:51.682Z,41.40
2019-03-22T13:10:27.394Z,41.40
2019-03-22T13:12:56.194Z,41.40
2019-03-22T13:15:25.300Z,41.30
2019-03-22T13:17:53.766Z,41.40
2019-03-22T13:20:22.770Z,41.50
2019-03-22T13:22:52.647Z,41.50
2019-03-22T13:25:21.402Z,41.60
2019-03-22T13:27:49.934Z,41.70
2019-03-22T13:30:30.952Z,41.80
2019-03-22T13:32:59.703Z,41.90
2019-03-22T13:35:30.133Z,42.10
2019-03-22T13:37:58.496Z,42.40
2019-03-22T13:40:27.317Z,42.80
2019-03-22T13:42:56.184Z,43.00
2019-03-22T13:45:24.575Z,43.00
2019-03-22T13:47:53.436Z,43.80
2019-03-22T13:50:21.829Z,43.60
2019-03-22T13:52:50.737Z,43.90
2019-03-22T13:55:19.346Z,44.10
2019-03-22T13:57:48.668Z,44.40
2019-03-22T14:00:19.035Z,44.30
2019-03-22T14:02:47.458Z,45.00
2019-03-22T14:05:16.360Z,44.10
2019-03-22T14:07:44.800Z,43.80
2019-03-22T14:10:32.634Z,43.80
2019-03-22T14:13:02.536Z,44.00
2019-03-22T14:15:31.281Z,43.70
2019-03-22T14:18:00.031Z,43.90
2019-03-22T14:20:28.945Z,44.20
2019-03-22T14:22:58.137Z,43.90
2019-03-22T14:25:27.188Z,43.90
2019-03-22T14:27:56.762Z,44.20
2019-03-22T14:30:25.574Z,44.30
2019-03-22T14:32:54.932Z,43.90
2019-03-22T14:35:23.686Z,45.00
2019-03-22T14:37:52.060Z,44.00
2019-03-22T14:40:20.707Z,44.10
2019-03-22T14:42:49.550Z,43.90
2019-03-22T14:45:18.434Z,44.20
2019-03-22T14:47:47.277Z,44.60
2019-03-22T14:50:16.629Z,44.60
2019-03-22T14:52:45.391Z,44.60
2019-03-22T14:55:14.117Z,44.80
2019-03-22T14:57:49.046Z,45.30
2019-03-22T15:00:13.720Z,45.20
2019-03-22T15:02:42.795Z,45.30
2019-03-22T15:05:11.482Z,45.60
2019-03-22T15:07:40.363Z,45.90
2019-03-22T15:10:11.187Z,45.80
2019-03-22T15:12:39.925Z,46.00
2019-03-22T15:15:11.715Z,46.10
2019-03-22T15:17:58.236Z,46.30
2019-03-22T15:20:40.523Z,46.20
2019-03-22T15:23:13.522Z,46.50
2019-03-22T15:25:45.011Z,46.50
2019-03-22T15:28:30.421Z,46.80
2019-03-22T15:31:03.314Z,46.60
2019-03-22T15:33:36.285Z,46.80
2019-03-22T15:36:15.665Z,46.80
2019-03-22T15:38:46.145Z,46.70
2019-03-22T15:41:14.709Z,46.90
2019-03-22T15:43:43.843Z,46.80
2019-03-22T15:46:12.375Z,46.80
2019-03-22T15:48:41.197Z,46.70
2019-03-22T15:51:09.894Z,47.00
2019-03-22T15:53:38.244Z,47.00
2019-03-22T15:56:06.732Z,47.20
2019-03-22T15:58:36.289Z,47.40
2019-03-22T16:01:06.008Z,47.30
2019-03-22T16:03:43.817Z,47.60
2019-03-22T16:06:04.400Z,47.70
2019-03-22T16:08:33.258Z,47.60
2019-03-22T16:11:01.727Z,47.90
2019-03-22T16:13:30.423Z,47.90
2019-03-22T16:15:58.841Z,47.90
2019-03-22T16:18:27.983Z,47.70
2019-03-22T16:21:00.050Z,47.20
2019-03-22T16:23:26.946Z,46.50
2019-03-22T16:25:55.242Z,46.20
2019-03-22T16:28:24.480Z,45.80
2019-03-22T16:30:53.194Z,46.00
2019-03-22T16:33:21.685Z,46.30
2019-03-22T16:35:50.452Z,46.70
2019-03-22T16:38:18.811Z,47.00
2019-03-22T16:40:47.122Z,47.00
2019-03-22T16:43:15.435Z,47.20
2019-03-22T16:45:43.858Z,46.90
2019-03-22T16:48:12.287Z,47.00
2019-03-22T16:50:40.854Z,47.00
2019-03-22T16:53:09.575Z,46.80
2019-03-22T16:55:37.854Z,46.90
2019-03-22T16:58:06.150Z,47.10
2019-03-22T17:00:35.156Z,47.10
2019-03-22T17:03:03.838Z,47.10
2019-03-22T17:05:32.180Z,46.90
2019-03-22T17:08:00.554Z,46.90
2019-03-22T17:10:28.941Z,47.00
2019-03-22T17:12:57.339Z,47.50
2019-03-22T17:15:26.073Z,46.80
2019-03-22T17:17:54.489Z,47.10
2019-03-22T17:20:23.089Z,47.10
2019-03-22T17:22:51.761Z,47.20
2019-03-22T17:25:20.126Z,47.10
2019-03-22T17:27:48.482Z,47.20
2019-03-22T17:30:16.787Z,47.20
2019-03-22T17:32:45.218Z,47.30
2019-03-22T17:35:13.953Z,47.20
2019-03-22T17:37:42.245Z,47.20
2019-03-22T17:40:10.631Z,47.30
2019-03-22T17:42:38.982Z,47.30
2019-03-22T17:45:09.445Z,47.30
2019-03-22T17:47:37.998Z,47.20
2019-03-22T17:50:07.328Z,47.10
2019-03-22T17:52:35.666Z,47.10
2019-03-22T17:55:06.066Z,47.10
2019-03-22T17:57:34.403Z,47.00
2019-03-22T18:00:03.356Z,47.00
2019-03-22T18:02:32.834Z,46.90
2019-03-22T18:05:01.499Z,46.90
2019-03-22T18:07:30.130Z,47.00
2019-03-22T18:09:58.466Z,47.00
2019-03-22T18:12:26.980Z,47.40
2019-03-22T18:14:55.258Z,47.40
2019-03-22T18:17:23.542Z,47.70
2019-03-22T18:19:52.005Z,47.80
2019-03-22T18:22:20.285Z,47.90
2019-03-22T18:24:48.575Z,47.80
2019-03-22T18:27:16.915Z,48.00
2019-03-22T18:29:45.257Z,47.80
2019-03-22T18:32:13.677Z,47.80
2019-03-22T18:34:42.049Z,47.90
2019-03-22T18:37:10.456Z,47.80
2019-03-22T18:39:38.981Z,47.60
2019-03-22T18:42:07.245Z,47.50
2019-03-22T18:44:35.637Z,47.50
2019-03-22T18:47:04.254Z,47.60
2019-03-22T18:49:32.513Z,47.60
2019-03-22T18:52:01.104Z,47.40
2019-03-22T18:54:29.429Z,47.30
2019-03-22T18:56:57.937Z,47.30
2019-03-22T18:59:26.258Z,47.80
2019-03-22T19:01:54.576Z,47.20
2019-03-22T19:04:23.459Z,47.40
2019-03-22T19:06:51.788Z,47.30
2019-03-22T19:09:20.207Z,47.30
2019-03-22T19:11:48.461Z,47.30
2019-03-22T19:14:16.803Z,47.30
2019-03-22T19:16:45.313Z,47.30
2019-03-22T19:19:13.829Z,47.30
2019-03-22T19:21:42.092Z,47.30
2019-03-22T19:24:10.390Z,47.30
2019-03-22T19:26:38.651Z,47.30
2019-03-22T19:29:06.911Z,47.30
2019-03-22T19:31:35.220Z,47.20
2019-03-22T19:34:03.747Z,47.30
2019-03-22T19:36:32.080Z,47.20
2019-03-22T19:39:00.598Z,47.30
2019-03-22T19:41:28.950Z,47.10
2019-03-22T19:43:57.465Z,47.20
2019-03-22T19:46:25.707Z,47.20
2019-03-22T19:48:53.992Z,47.10
2019-03-22T19:51:22.273Z,47.10
2019-03-22T19:53:50.542Z,47.20
2019-03-22T19:56:18.862Z,47.10
2019-03-22T19:58:47.158Z,47.20
2019-03-22T20:01:15.414Z,47.10
2019-03-22T20:03:43.678Z,47.20
2019-03-22T20:06:11.933Z,47.10
2019-03-22T20:08:40.450Z,47.20
2019-03-22T20:11:08.712Z,47.20
2019-03-22T20:13:37.217Z,47.10
2019-03-22T20:16:05.473Z,47.20
2019-03-22T20:18:33.736Z,47.20
2019-03-22T20:21:02.025Z,47.20
2019-03-22T20:23:30.355Z,47.30
2019-03-22T20:25:58.885Z,47.20
2019-03-22T20:28:27.135Z,47.20
2019-03-22T20:30:55.409Z,47.20
2019-03-22T20:33:23.663Z,47.30
2019-03-22T20:35:51.935Z,47.30
2019-03-22T20:38:20.264Z,47.30
2019-03-22T20:40:48.532Z,47.20
2019-03-22T20:43:16.873Z,47.20
2019-03-22T20:45:45.145Z,47.20
2019-03-22T20:48:13.425Z,47.20
2019-03-22T20:50:41.687Z,47.20
2019-03-22T20:53:09.953Z,47.20
2019-03-22T20:55:38.221Z,47.20
2019-03-22T20:58:06.472Z,47.20
2019-03-22T21:00:34.758Z,47.20
2019-03-22T21:03:03.078Z,47.10
2019-03-22T21:05:31.416Z,47.10
2019-03-22T21:07:59.671Z,47.10
2019-03-22T21:10:28.000Z,47.10
2019-03-22T21:12:56.605Z,47.10
2019-03-22T21:15:25.020Z,47.10
2019-03-22T21:17:53.298Z,47.10
2019-03-22T21:20:21.544Z,47.10
2019-03-22T21:22:49.803Z,47.10
2019-03-22T21:25:18.321Z,47.10
2019-03-22T21:27:46.572Z,47.10
2019-03-22T21:30:15.313Z,47.10
2019-03-22T21:32:45.471Z,47.10
2019-03-22T21:35:22.007Z,47.10
2019-03-22T21:37:43.806Z,47.20
2019-03-22T21:40:12.057Z,47.10
2019-03-22T21:42:40.337Z,47.10
2019-03-22T21:45:09.771Z,47.20
2019-03-22T21:47:38.051Z,47.20
2019-03-22T21:50:06.942Z,47.10
2019-03-22T21:52:35.178Z,47.10
2019-03-22T21:55:03.440Z,47.10
2019-03-22T21:57:31.710Z,47.10
2019-03-22T21:59:59.981Z,47.70
2019-03-22T22:02:28.492Z,47.00
2019-03-22T22:04:56.784Z,47.10
2019-03-22T22:07:25.033Z,47.20
2019-03-22T22:09:53.281Z,47.10
2019-03-22T22:12:21.544Z,47.10
2019-03-22T22:14:49.820Z,47.10
2019-03-22T22:17:18.099Z,47.10
2019-03-22T22:19:46.440Z,47.00
2019-03-22T22:22:14.714Z,47.00
2019-03-22T22:24:43.184Z,47.00
2019-03-22T22:27:13.975Z,46.90
2019-03-22T22:29:41.525Z,47.00
2019-03-22T22:32:09.770Z,46.90
2019-03-22T22:34:38.289Z,46.90
2019-03-22T22:37:06.569Z,46.90
2019-03-22T22:39:34.849Z,46.90
2019-03-22T22:42:03.144Z,46.80
2019-03-22T22:44:31.418Z,46.90
2019-03-22T22:46:59.657Z,46.80
2019-03-22T22:49:27.942Z,46.80
2019-03-22T22:51:56.209Z,46.80
2019-03-22T22:54:24.481Z,46.70
2019-03-22T22:56:52.713Z,46.80
2019-03-22T22:59:20.998Z,46.80
2019-03-22T23:01:49.251Z,46.70
2019-03-22T23:04:17.486Z,46.70
2019-03-22T23:06:45.766Z,46.70
2019-03-22T23:09:14.048Z,46.70
2019-03-22T23:11:42.420Z,46.70
2019-03-22T23:14:10.684Z,46.70
2019-03-22T23:16:38.958Z,46.70
2019-03-22T23:19:07.233Z,46.60
2019-03-22T23:21:35.481Z,46.60
2019-03-22T23:24:03.795Z,46.70
2019-03-22T23:26:32.285Z,46.70
2019-03-22T23:29:00.788Z,46.70
2019-03-22T23:31:29.088Z,46.70
2019-03-22T23:33:57.432Z,46.70
2019-03-22T23:36:25.698Z,46.70
2019-03-22T23:38:54.001Z,46.70
2019-03-22T23:41:22.266Z,46.70
2019-03-22T23:43:50.553Z,46.60
2019-03-22T23:46:18.897Z,46.70
2019-03-22T23:48:47.158Z,46.70
2019-03-22T23:51:15.663Z,46.60
2019-03-22T23:53:43.909Z,46.60
2019-03-22T23:56:12.173Z,46.60
2019-03-22T23:58:40.457Z,46.60
